Time;durP1;ratioP1;P1;durP2;ratioP2;P2;SDS_P1;SDS_P2;PMS_P1;PMS_P2;Temp;Humidity;BMP_temperature;BMP_pressure;BME280_temperature;BME280_humidity;BME280_pressure;Samples;Min_cycle;Max_cycle;Signal;HPM_P1;HPM_P2
2021/10/07 00:00:21;;;;;;;11.30;5.50;;;;;;;9.77;59.74;98063.42;116414;1183;68609;-70
2021/10/07 00:03:05;;;;;;;16.80;5.70;;;;;;;9.78;59.62;98067.02;116422;1177;59568;-68
2021/10/07 00:05:35;;;;;;;10.20;6.00;;;;;;;9.81;59.49;98059.94;116498;1182;59554;-68
2021/10/07 00:08:06;;;;;;;10.40;5.90;;;;;;;9.81;59.57;98061.53;116455;1183;71379;-71
2021/10/07 00:10:35;;;;;;;15.50;6.30;;;;;;;9.79;59.50;98065.76;116615;1181;68355;-68
2021/10/07 00:13:06;;;;;;;12.90;6.20;;;;;;;9.75;59.65;98065.51;116542;1176;69127;-71
2021/10/07 00:15:35;;;;;;;9.20;5.80;;;;;;;9.70;59.69;98067.87;116451;1183;59554;-70
2021/10/07 00:18:05;;;;;;;11.10;5.50;;;;;;;9.67;59.81;98065.68;116560;1177;58786;-73
2021/10/07 00:20:34;;;;;;;12.20;6.00;;;;;;;9.67;59.75;98065.93;116532;1184;71387;-72
2021/10/07 00:23:04;;;;;;;12.50;6.30;;;;;;;9.65;59.83;98064.94;116501;1181;67566;-69
2021/10/07 00:25:33;;;;;;;13.40;5.70;;;;;;;9.62;59.91;98069.02;116417;1183;69257;-67
2021/10/07 00:28:10;;;;;;;13.60;6.30;;;;;;;9.59;59.97;98066.85;116481;1180;59553;-72
2021/10/07 00:30:41;;;;;;;9.70;6.40;;;;;;;9.57;59.97;98064.84;116346;1181;59558;-69
2021/10/07 00:33:23;;;;;;;10.60;6.50;;;;;;;9.55;59.98;98062.42;116425;1181;71307;-69
2021/10/07 00:41:18;;;;;;;11.90;6.00;;;;;;;9.50;59.76;98058.84;116531;1180;59556;-69
2021/10/07 00:43:48;;;;;;;12.00;6.20;;;;;;;9.51;59.77;98058.91;116454;1182;59548;-69
2021/10/07 00:46:17;;;;;;;13.20;6.40;;;;;;;9.52;59.62;98057.39;116520;1181;71431;-68
2021/10/07 00:48:47;;;;;;;14.10;6.10;;;;;;;9.55;59.35;98062.34;116562;1181;67677;-71
2021/10/07 00:51:17;;;;;;;14.40;6.20;;;;;;;9.51;59.63;98061.52;116471;1173;69080;-72
2021/10/07 00:53:47;;;;;;;10.30;6.10;;;;;;;9.49;59.62;98053.18;116469;1182;59542;-71
2021/10/07 00:56:19;;;;;;;15.50;6.10;;;;;;;9.54;58.99;98059.03;116497;1182;59540;-68
2021/10/07 00:58:49;;;;;;;11.10;5.90;;;;;;;9.49;59.33;98058.54;116509;1182;71289;-72
2021/10/07 01:01:18;;;;;;;12.80;6.00;;;;;;;9.45;59.31;98064.53;116536;1173;68395;-69
2021/10/07 01:03:48;;;;;;;11.40;5.70;;;;;;;9.42;59.38;98064.81;116449;1182;68603;-72
2021/10/07 01:06:17;;;;;;;11.40;6.00;;;;;;;9.39;59.31;98063.27;116442;1182;59512;-74
2021/10/07 01:08:49;;;;;;;16.00;5.50;;;;;;;9.42;59.00;98067.74;116394;1183;59556;-71
2021/10/07 01:11:20;;;;;;;12.40;6.10;;;;;;;9.41;59.03;98066.48;116469;1182;70786;-71
2021/10/07 01:13:51;;;;;;;10.40;5.90;;;;;;;9.37;58.93;98063.77;116648;1181;68542;-69
2021/10/07 01:16:20;;;;;;;13.00;5.60;;;;;;;9.35;58.93;98065.70;116519;1180;69267;-73
2021/10/07 01:18:51;;;;;;;15.20;6.20;;;;;;;9.31;58.84;98063.38;116469;1182;59506;-70
2021/10/07 01:21:22;;;;;;;26.60;5.30;;;;;;;9.33;58.57;98068.80;116489;1182;59507;-68
2021/10/07 01:23:51;;;;;;;12.60;5.30;;;;;;;9.32;58.43;98067.70;116601;1182;71155;-69
2021/10/07 01:26:21;;;;;;;14.20;5.30;;;;;;;9.29;58.41;98066.65;116503;1180;68371;-73
2021/10/07 01:28:51;;;;;;;;;;;;;;;9.24;58.86;98070.67;116502;1182;68443;-70
2021/10/07 01:31:21;;;;;;;9.90;5.00;;;;;;;9.18;58.79;98071.17;116463;1181;59536;-69
2021/10/07 01:33:51;;;;;;;9.40;5.10;;;;;;;9.18;58.49;98074.30;116432;1180;59594;-72
2021/10/07 01:36:20;;;;;;;11.50;4.70;;;;;;;9.14;58.76;98074.67;116459;1181;71340;-69
2021/10/07 01:38:50;;;;;;;11.20;5.30;;;;;;;9.12;58.51;98076.19;116560;1180;68472;-74
2021/10/07 01:41:19;;;;;;;13.10;5.60;;;;;;;9.13;58.59;98071.92;116517;1180;68336;-72
2021/10/07 01:43:55;;;;;;;11.80;5.80;;;;;;;9.13;58.46;98075.01;116452;1181;59550;-69
2021/10/07 01:46:25;;;;;;;8.50;4.70;;;;;;;9.10;58.48;98079.63;116494;1182;59515;-72
2021/10/07 01:48:54;;;;;;;10.20;5.90;;;;;;;9.07;58.50;98079.20;116457;1182;71365;-74
2021/10/07 01:51:24;;;;;;;11.90;4.90;;;;;;;9.05;58.47;98080.23;116455;1182;68350;-68
2021/10/07 01:53:54;;;;;;;9.70;5.00;;;;;;;9.06;58.29;98079.83;116502;1180;69269;-70
2021/10/07 01:56:25;;;;;;;11.30;4.90;;;;;;;9.06;58.32;98084.34;116596;1182;59505;-73
2021/10/07 01:58:55;;;;;;;9.20;4.50;;;;;;;9.06;58.26;98078.73;116518;1181;59519;-71
2021/10/07 02:01:26;;;;;;;13.50;5.30;;;;;;;9.06;57.91;98075.81;116525;1182;70630;-70
2021/10/07 02:03:57;;;;;;;16.50;5.30;;;;;;;9.08;57.80;98081.23;116497;1183;67651;-70
2021/10/07 02:06:27;;;;;;;9.80;4.80;;;;;;;9.08;57.68;98085.49;116514;1181;68534;-70
2021/10/07 02:08:57;;;;;;;9.50;4.90;;;;;;;9.07;57.52;98084.40;116588;1180;59561;-73
2021/10/07 02:11:27;;;;;;;10.10;4.60;;;;;;;9.03;57.64;98091.80;116491;1181;59529;-72
2021/10/07 02:13:57;;;;;;;11.50;4.60;;;;;;;9.04;57.11;98090.05;116428;1184;70611;-68
2021/10/07 02:16:32;;;;;;;9.90;4.70;;;;;;;9.03;57.00;98092.91;116480;1180;68510;-73
2021/10/07 02:19:03;;;;;;;15.20;4.70;;;;;;;9.00;57.07;98094.44;116464;1182;68175;-68
2021/10/07 02:21:33;;;;;;;8.90;4.40;;;;;;;9.00;56.87;98098.63;116524;1181;59569;-73
2021/10/07 02:24:02;;;;;;;9.20;4.10;;;;;;;9.01;56.61;98102.48;116595;1180;59636;-68
2021/10/07 02:26:31;;;;;;;13.00;4.40;;;;;;;9.01;56.29;98109.51;116381;1181;69593;-68
2021/10/07 02:29:01;;;;;;;9.40;4.10;;;;;;;8.97;56.53;98108.28;116455;1182;68208;-70
2021/10/07 02:31:31;;;;;;;;;;;;;;;8.94;56.64;98110.21;116525;1182;68268;-68
2021/10/07 02:34:01;;;;;;;8.40;4.10;;;;;;;8.91;56.17;98107.02;116492;1182;59545;-73
2021/10/07 02:36:30;;;;;;;10.80;4.50;;;;;;;8.90;55.99;98108.45;116377;1183;59664;-67
2021/10/07 02:39:01;;;;;;;11.40;4.30;;;;;;;8.88;55.97;98112.02;116509;1184;71366;-74
2021/10/07 02:41:31;;;;;;;11.80;4.80;;;;;;;8.85;56.13;98109.70;116363;1183;68726;-71
2021/10/07 02:44:01;;;;;;;7.90;4.20;;;;;;;8.82;56.25;98113.68;116533;1182;69251;-71
2021/10/07 02:46:31;;;;;;;8.40;4.10;;;;;;;8.79;56.14;98113.38;116556;1180;59559;-74
2021/10/07 02:49:02;;;;;;;14.70;4.00;;;;;;;8.76;56.21;98115.85;116553;1180;59564;-68
2021/10/07 02:51:32;;;;;;;8.90;4.00;;;;;;;8.77;55.89;98116.71;116486;1182;70566;-73
2021/10/07 02:54:01;;;;;;;14.00;4.50;;;;;;;8.74;55.81;98111.86;116465;1182;67887;-67
2021/10/07 02:56:30;;;;;;;11.10;4.60;;;;;;;8.76;55.54;98110.96;116440;1182;68338;-72
2021/10/07 02:59:00;;;;;;;9.10;3.80;;;;;;;8.78;55.39;98118.98;116494;1180;59548;-68
2021/10/07 03:01:29;;;;;;;8.00;4.00;;;;;;;8.78;55.34;98116.62;116457;1182;59532;-72
2021/10/07 03:04:00;;;;;;;9.60;4.40;;;;;;;8.76;55.44;98116.73;116314;1184;69878;-70
2021/10/07 03:06:29;;;;;;;11.50;4.60;;;;;;;8.75;55.49;98116.89;116452;1182;67804;-70
2021/10/07 03:08:59;;;;;;;9.50;4.10;;;;;;;8.74;55.37;98114.21;116428;1184;68254;-70
2021/10/07 03:11:30;;;;;;;12.70;4.50;;;;;;;8.72;55.43;98116.30;116491;1183;59570;-73
2021/10/07 03:14:00;;;;;;;9.70;4.10;;;;;;;8.73;55.29;98114.88;116450;1182;59555;-71
2021/10/07 03:16:30;;;;;;;10.90;3.90;;;;;;;8.76;55.06;98116.56;116421;1173;71405;-71
2021/10/07 03:19:00;;;;;;;9.30;4.20;;;;;;;8.74;55.21;98113.20;116551;1181;67593;-71
2021/10/07 03:21:30;;;;;;;11.10;4.20;;;;;;;8.71;55.38;98119.00;116474;1180;69264;-74
2021/10/07 03:23:59;;;;;;;10.30;4.50;;;;;;;8.69;55.30;98119.65;116521;1181;59523;-69
2021/10/07 03:26:28;;;;;;;11.30;4.10;;;;;;;8.67;55.45;98118.17;116453;1184;59546;-73
2021/10/07 03:28:58;;;;;;;8.20;4.50;;;;;;;8.65;55.72;98119.08;116497;1182;70602;-69
2021/10/07 03:31:28;;;;;;;13.10;4.40;;;;;;;8.63;55.64;98116.73;116435;1183;67642;-73
2021/10/07 03:33:58;;;;;;;15.60;3.70;;;;;;;8.62;55.71;98121.54;116489;1182;69220;-70
2021/10/07 03:36:27;;;;;;;12.50;4.90;;;;;;;8.58;55.86;98125.91;116575;1181;59545;-69
2021/10/07 03:38:57;;;;;;;7.00;3.60;;;;;;;8.57;55.94;98116.61;116482;1184;59557;-73
2021/10/07 03:41:26;;;;;;;12.00;4.10;;;;;;;8.56;55.89;98121.91;116485;1182;70610;-69
2021/10/07 03:43:55;;;;;;;9.50;4.20;;;;;;;8.59;55.74;98120.30;116450;1183;67577;-70
2021/10/07 03:46:25;;;;;;;9.60;4.20;;;;;;;8.60;55.76;98122.81;116360;1183;69279;-69
2021/10/07 03:48:54;;;;;;;11.70;4.40;;;;;;;8.54;55.94;98123.52;116486;1182;59558;-72
2021/10/07 03:51:24;;;;;;;11.00;4.30;;;;;;;8.48;56.28;98125.08;116424;1181;59995;-72
2021/10/07 03:53:53;;;;;;;7.70;4.20;;;;;;;8.46;56.26;98125.58;116460;1182;70585;-71
2021/10/07 03:56:22;;;;;;;9.90;4.50;;;;;;;8.43;56.30;98125.75;116498;1182;67016;-71
2021/10/07 03:58:52;;;;;;;10.50;4.40;;;;;;;8.47;56.08;98127.69;116479;1181;69255;-72
2021/10/07 04:01:21;;;;;;;8.20;3.80;;;;;;;8.45;56.37;98124.95;116444;1182;59578;-70
2021/10/07 04:03:54;;;;;;;19.20;4.30;;;;;;;8.40;56.48;98130.43;116427;1179;59487;-71
2021/10/07 04:06:23;;;;;;;10.30;4.20;;;;;;;8.35;56.63;98127.17;116369;1184;71246;-72
2021/10/07 04:08:53;;;;;;;14.40;4.60;;;;;;;8.30;56.83;98131.85;116499;1180;67527;-73
2021/10/07 04:11:22;;;;;;;11.80;4.30;;;;;;;8.24;57.01;98131.58;116418;1184;69182;-74
2021/10/07 04:13:51;;;;;;;9.50;4.50;;;;;;;8.19;57.06;98132.41;116448;1181;59475;-72
2021/10/07 04:16:20;;;;;;;13.60;4.50;;;;;;;8.17;57.27;98130.54;116458;1181;59557;-71
2021/10/07 04:18:49;;;;;;;12.80;4.00;;;;;;;8.17;57.47;98137.15;116521;1180;71156;-71
2021/10/07 04:21:19;;;;;;;9.40;4.10;;;;;;;8.16;57.20;98133.06;116435;1180;68448;-72
2021/10/07 04:23:48;;;;;;;11.40;4.40;;;;;;;8.13;57.57;98128.75;116409;1182;67324;-71
2021/10/07 04:26:17;;;;;;;10.90;4.20;;;;;;;8.15;57.40;98129.92;116441;1184;59526;-71
2021/10/07 04:28:46;;;;;;;12.10;4.30;;;;;;;8.14;57.59;98128.83;116551;1180;59567;-70
2021/10/07 04:31:16;;;;;;;16.00;4.30;;;;;;;8.12;57.73;98127.90;116400;1184;70582;-69
2021/10/07 04:33:45;;;;;;;13.70;4.20;;;;;;;8.10;57.94;98126.75;116474;1182;67738;-73
2021/10/07 04:36:14;;;;;;;11.50;4.10;;;;;;;8.07;57.92;98130.77;116451;1180;69182;-67
2021/10/07 04:38:43;;;;;;;13.30;3.80;;;;;;;8.06;57.92;98132.19;116389;1184;59546;-69
2021/10/07 04:41:12;;;;;;;10.50;4.50;;;;;;;8.06;58.22;98123.45;116459;1181;59541;-74
2021/10/07 04:43:42;;;;;;;13.20;4.10;;;;;;;8.06;58.05;98125.96;116504;1184;71395;-68
2021/10/07 04:46:11;;;;;;;12.00;4.40;;;;;;;8.09;58.07;98127.61;116486;1183;67694;-74
2021/10/07 04:48:40;;;;;;;12.00;4.30;;;;;;;8.10;58.13;98131.63;116421;1182;69290;-67
2021/10/07 04:51:09;;;;;;;11.80;4.20;;;;;;;8.14;58.15;98127.33;116425;1182;59539;-72
2021/10/07 04:53:38;;;;;;;13.40;4.10;;;;;;;8.17;58.11;98125.41;116507;1179;59640;-75
2021/10/07 04:56:07;;;;;;;11.40;4.40;;;;;;;8.20;58.14;98123.73;116417;1183;71422;-73
2021/10/07 04:58:36;;;;;;;15.90;4.40;;;;;;;8.22;58.09;98125.36;116480;1184;67527;-70
2021/10/07 05:01:05;;;;;;;7.00;3.70;;;;;;;8.25;58.09;98130.69;116479;1180;69169;-74
2021/10/07 05:03:34;;;;;;;7.70;3.60;;;;;;;8.31;58.11;98131.05;116391;1183;59572;-73
2021/10/07 05:06:03;;;;;;;13.70;4.30;;;;;;;8.36;57.97;98136.46;116490;1181;59541;-73
2021/10/07 05:08:32;;;;;;;9.10;3.60;;;;;;;8.42;57.91;98137.11;116462;1182;71413;-74
2021/10/07 05:11:01;;;;;;;13.70;3.90;;;;;;;8.51;57.64;98129.38;116438;1183;67711;-72
2021/10/07 05:13:30;;;;;;;13.40;3.80;;;;;;;8.54;57.72;98130.61;116430;1183;68702;-70
2021/10/07 05:15:59;;;;;;;13.80;3.50;;;;;;;8.61;57.55;98130.30;116457;1182;59511;-71
2021/10/07 05:18:28;;;;;;;10.00;3.60;;;;;;;8.67;57.53;98137.59;116431;1181;59545;-73
2021/10/07 05:20:57;;;;;;;11.00;3.60;;;;;;;8.72;57.56;98136.40;116395;1181;71522;-70
2021/10/07 05:23:26;;;;;;;10.60;3.60;;;;;;;8.80;57.46;98138.06;116473;1182;68508;-74
2021/10/07 05:25:56;;;;;;;9.60;3.30;;;;;;;8.89;57.09;98143.83;116436;1181;68718;-69
2021/10/07 05:28:26;;;;;;;15.10;3.80;;;;;;;8.99;57.01;98151.83;116389;1183;59489;-68
2021/10/07 05:30:54;;;;;;;10.30;3.50;;;;;;;9.07;56.75;98153.39;116399;1182;59552;-72
2021/10/07 05:33:23;;;;;;;12.10;3.40;;;;;;;9.17;56.56;98158.65;116455;1184;70696;-71
2021/10/07 05:35:52;;;;;;;9.00;3.60;;;;;;;9.24;56.58;98159.51;116415;1183;68432;-70
2021/10/07 05:38:21;;;;;;;18.10;3.50;;;;;;;9.35;56.27;98166.23;116444;1182;69272;-70
2021/10/07 05:40:50;;;;;;;17.90;3.80;;;;;;;9.48;55.64;98172.61;116404;1183;59505;-72
2021/10/07 05:43:20;;;;;;;9.90;3.30;;;;;;;9.58;55.55;98170.91;116494;1182;59561;-71
2021/10/07 05:45:49;;;;;;;14.20;3.60;;;;;;;9.70;55.36;98176.67;116393;1184;71181;-72
2021/10/07 05:48:18;;;;;;;14.20;3.90;;;;;;;9.83;54.95;98176.95;116454;1182;68419;-74
2021/10/07 05:50:47;;;;;;;8.50;3.60;;;;;;;9.89;54.70;98173.07;116212;1184;69234;-73
2021/10/07 05:53:16;;;;;;;11.90;3.70;;;;;;;10.00;54.07;98170.69;116441;1182;59553;-74
2021/10/07 05:55:45;;;;;;;12.30;3.60;;;;;;;10.05;53.68;98162.41;116399;1181;59525;-71
2021/10/07 05:58:14;;;;;;;7.50;3.80;;;;;;;10.09;53.57;98162.20;116395;1183;70631;-70
2021/10/07 06:00:43;;;;;;;10.60;3.50;;;;;;;10.14;53.73;98161.88;116427;1182;68390;-74
2021/10/07 06:03:13;;;;;;;12.60;3.90;;;;;;;10.25;53.86;98159.52;116392;1182;68238;-69
2021/10/07 06:05:42;;;;;;;13.00;3.60;;;;;;;10.36;53.80;98155.45;116423;1181;59545;-68
2021/10/07 06:08:11;;;;;;;13.90;3.20;;;;;;;10.51;53.16;98150.59;116429;1182;59534;-72
2021/10/07 06:10:40;;;;;;;14.30;3.70;;;;;;;10.66;52.87;98143.22;116428;1182;71342;-74
2021/10/07 06:13:09;;;;;;;12.60;3.50;;;;;;;10.80;53.07;98138.91;116336;1179;68452;-68
2021/10/07 06:15:38;;;;;;;14.50;3.50;;;;;;;11.07;52.55;98133.64;116387;1182;68520;-74
2021/10/07 06:18:07;;;;;;;9.50;3.40;;;;;;;11.30;51.55;98130.31;116398;1182;59556;-67
2021/10/07 06:20:37;;;;;;;11.10;3.50;;;;;;;11.45;51.03;98131.19;116311;1182;59538;-69
2021/10/07 06:23:06;;;;;;;11.90;3.40;;;;;;;11.55;50.79;98139.61;116401;1182;70683;-68
2021/10/07 06:25:36;;;;;;;21.10;4.50;;;;;;;11.54;51.03;98142.55;116403;1183;68427;-74
2021/10/07 06:28:08;;;;;;;16.30;3.50;;;;;;;11.70;50.78;98136.97;116377;1182;69307;-68
2021/10/07 06:30:37;;;;;;;23.40;4.70;;;;;;;11.87;50.37;98130.04;116362;1182;59615;-72
2021/10/07 06:33:06;;;;;;;13.50;3.10;;;;;;;11.97;49.90;98133.38;116439;1184;59480;-73
2021/10/07 06:35:35;;;;;;;11.40;3.00;;;;;;;12.05;49.92;98135.96;116425;1182;71168;-71
2021/10/07 06:38:05;;;;;;;12.70;3.50;;;;;;;12.24;49.58;98137.06;116432;1182;67521;-68
2021/10/07 06:40:34;;;;;;;12.70;3.70;;;;;;;12.35;49.17;98129.58;116439;1183;68474;-74
2021/10/07 06:43:03;;;;;;;13.20;3.20;;;;;;;12.35;49.18;98135.05;116427;1181;59537;-72
2021/10/07 06:45:32;;;;;;;13.00;3.00;;;;;;;12.37;48.81;98137.79;116511;1182;59545;-69
2021/10/07 06:48:02;;;;;;;14.70;3.20;;;;;;;12.43;48.97;98143.59;116406;1182;70612;-71
2021/10/07 06:50:32;;;;;;;11.70;3.40;;;;;;;12.49;49.21;98144.78;116396;1184;67738;-71
2021/10/07 06:53:02;;;;;;;17.00;3.20;;;;;;;12.70;48.49;98135.19;116392;1184;69312;-70
2021/10/07 06:55:31;;;;;;;8.60;2.80;;;;;;;12.86;47.57;98126.00;116399;1182;59534;-67
2021/10/07 06:58:00;;;;;;;11.70;3.10;;;;;;;12.86;47.79;98136.73;116414;1182;59488;-74
2021/10/07 07:00:35;;;;;;;13.30;3.50;;;;;;;13.06;47.81;98133.25;116415;1181;71637;-66
2021/10/07 07:03:05;;;;;;;22.30;3.40;;;;;;;13.33;47.34;98134.02;116371;1182;67441;-70
2021/10/07 07:05:34;;;;;;;14.90;3.40;;;;;;;13.57;46.39;98132.67;116399;1179;69798;-68
2021/10/07 07:08:03;;;;;;;16.60;2.90;;;;;;;13.74;45.88;98129.36;116426;1182;59584;-70
2021/10/07 07:10:32;;;;;;;14.30;2.80;;;;;;;13.67;45.50;98132.54;116361;1183;59535;-69
2021/10/07 07:13:05;;;;;;;10.70;3.00;;;;;;;13.70;45.63;98141.43;116412;1182;71237;-69
2021/10/07 07:15:35;;;;;;;9.50;3.00;;;;;;;13.73;45.05;98140.48;116368;1182;68404;-69
2021/10/07 07:18:04;;;;;;;13.30;2.90;;;;;;;13.76;45.03;98143.79;116416;1182;69484;-70
2021/10/07 07:20:33;;;;;;;7.50;2.70;;;;;;;13.78;44.88;98152.39;116398;1182;59558;-69
2021/10/07 07:23:02;;;;;;;13.20;2.90;;;;;;;13.71;45.02;98155.33;116405;1181;59609;-72
2021/10/07 07:25:31;;;;;;;10.30;2.60;;;;;;;13.60;44.84;98156.73;116449;1182;70962;-75
2021/10/07 07:28:00;;;;;;;9.80;2.90;;;;;;;13.48;45.20;98158.30;116411;1182;68798;-74
2021/10/07 07:30:30;;;;;;;12.00;3.70;;;;;;;13.51;44.90;98155.10;116428;1181;69229;-68
2021/10/07 07:32:58;;;;;;;8.00;2.90;;;;;;;13.58;45.31;98157.77;116407;1182;59587;-73
2021/10/07 07:35:30;;;;;;;10.90;2.70;;;;;;;13.85;44.73;98155.29;116408;1181;59547;-72
2021/10/07 07:38:03;;;;;;;17.30;2.80;;;;;;;13.93;44.04;98165.38;116395;1182;71394;-69
2021/10/07 07:40:33;;;;;;;13.10;2.60;;;;;;;13.71;44.38;98160.17;116384;1182;68426;-68
2021/10/07 07:43:02;;;;;;;11.90;2.40;;;;;;;13.68;44.75;98170.73;116411;1182;68856;-70
2021/10/07 07:45:31;;;;;;;14.70;3.30;;;;;;;13.73;44.64;98162.74;116422;1182;59532;-69
2021/10/07 07:48:01;;;;;;;14.90;2.50;;;;;;;13.77;44.44;98166.05;116377;1184;59511;-69
2021/10/07 07:50:31;;;;;;;10.80;2.60;;;;;;;13.78;44.79;98161.95;116355;1182;71443;-69
2021/10/07 07:53:00;;;;;;;22.60;4.50;;;;;;;13.98;44.64;98161.86;116414;1183;68436;-74
2021/10/07 07:55:29;;;;;;;11.80;4.00;;;;;;;14.35;43.85;98170.48;116417;1182;68532;-74
2021/10/07 07:57:58;;;;;;;13.90;3.40;;;;;;;14.50;43.69;98170.80;116375;1182;59618;-67
2021/10/07 08:00:27;;;;;;;10.40;2.80;;;;;;;14.67;43.12;98173.73;116405;1182;59511;-74
2021/10/07 08:02:56;;;;;;;13.40;2.20;;;;;;;14.77;43.03;98157.94;116374;1183;71407;-68
2021/10/07 08:05:25;;;;;;;6.90;2.20;;;;;;;14.97;42.84;98160.83;116461;1183;66895;-72
2021/10/07 08:07:55;;;;;;;10.50;2.70;;;;;;;14.85;42.68;98147.01;116415;1173;69197;-72
2021/10/07 08:10:25;;;;;;;10.20;3.00;;;;;;;14.97;43.06;98148.09;116434;1181;59527;-72
2021/10/07 08:12:54;;;;;;;16.90;2.80;;;;;;;14.86;43.19;98151.26;116390;1182;59619;-69
2021/10/07 08:15:24;;;;;;;12.30;2.60;;;;;;;14.88;43.17;98150.46;116439;1183;71474;-71
2021/10/07 08:17:53;;;;;;;12.70;2.50;;;;;;;14.64;43.11;98148.67;116468;1180;68507;-68
2021/10/07 08:20:23;;;;;;;9.80;2.40;;;;;;;14.71;43.49;98152.17;116427;1182;69904;-73
2021/10/07 08:22:52;;;;;;;13.80;2.20;;;;;;;14.80;43.46;98148.38;116417;1182;59532;-69
2021/10/07 08:25:22;;;;;;;12.50;2.50;;;;;;;14.75;43.22;98152.92;116409;1182;59573;-68
2021/10/07 08:27:52;;;;;;;18.70;2.90;;;;;;;14.67;43.27;98147.36;116414;1182;71290;-69
2021/10/07 08:30:21;;;;;;;6.40;2.60;;;;;;;14.52;43.32;98145.09;116405;1182;67619;-72
2021/10/07 08:32:50;;;;;;;16.70;2.80;;;;;;;14.42;43.70;98147.51;116412;1181;68370;-69
2021/10/07 08:35:19;;;;;;;10.00;2.30;;;;;;;14.41;43.75;98144.98;116373;1182;59558;-71
2021/10/07 08:37:48;;;;;;;9.30;2.50;;;;;;;14.43;44.00;98146.98;116440;1182;60563;-72
2021/10/07 08:40:17;;;;;;;17.50;4.60;;;;;;;14.48;44.26;98152.98;116431;1182;70173;-74
2021/10/07 08:42:46;;;;;;;14.00;2.90;;;;;;;14.64;44.24;98154.24;116435;1182;67676;-69
2021/10/07 08:45:15;;;;;;;6.00;2.40;;;;;;;14.67;43.73;98147.70;116408;1183;68423;-69
2021/10/07 08:47:47;;;;;;;13.20;2.70;;;;;;;14.67;43.36;98137.34;116382;1182;59548;-67
2021/10/07 08:50:18;;;;;;;6.60;2.10;;;;;;;14.76;43.48;98137.91;116422;1182;59577;-72
2021/10/07 08:52:48;;;;;;;11.60;2.60;;;;;;;15.08;42.48;98131.77;116367;1182;70570;-70
2021/10/07 08:55:18;;;;;;;10.90;2.60;;;;;;;14.88;42.53;98135.59;116244;1183;67936;-69
2021/10/07 08:57:47;;;;;;;14.90;2.70;;;;;;;14.53;43.39;98138.94;116284;1184;68406;-70
2021/10/07 09:00:18;;;;;;;12.80;2.70;;;;;;;14.59;43.43;98143.77;116327;1182;59513;-72
2021/10/07 09:02:47;;;;;;;10.00;2.20;;;;;;;14.72;43.11;98144.60;116366;1182;59567;-73
2021/10/07 09:05:23;;;;;;;12.50;2.50;;;;;;;14.92;43.05;98145.11;116141;1184;69668;-70
2021/10/07 09:07:58;;;;;;;15.00;3.10;;;;;;;14.93;42.52;98142.09;116088;1184;68493;-68
2021/10/07 09:10:48;;;;;;;14.80;3.00;;;;;;;15.28;42.26;98138.42;116270;1184;69304;-68
2021/10/07 09:13:21;;;;;;;14.30;3.30;;;;;;;15.98;40.94;98127.63;116257;1182;59558;-69
2021/10/07 09:15:56;;;;;;;14.40;3.00;;;;;;;15.89;40.28;98130.22;116150;1174;59561;-71
2021/10/07 09:18:27;;;;;;;13.70;3.00;;;;;;;15.85;40.46;98128.81;116216;1183;70577;-70
2021/10/07 09:21:00;;;;;;;13.30;3.00;;;;;;;16.24;39.54;98121.82;116297;1184;68296;-66
2021/10/07 09:23:34;;;;;;;10.20;2.90;;;;;;;16.01;39.66;98118.92;116299;1184;69240;-72
2021/10/07 09:26:11;;;;;;;13.20;3.70;;;;;;;15.75;40.06;98117.86;116115;1183;59580;-72
2021/10/07 09:28:58;;;;;;;13.10;3.20;;;;;;;15.50;40.63;98114.67;116214;1184;59636;-73
2021/10/07 09:31:30;;;;;;;15.90;2.90;;;;;;;15.71;40.14;98111.96;116362;1182;70708;-70
2021/10/07 09:34:06;;;;;;;11.70;2.60;;;;;;;15.73;40.19;98113.63;116304;1184;68480;-69
2021/10/07 09:36:35;;;;;;;13.10;3.00;;;;;;;15.86;39.93;98107.54;116250;1183;68598;-67
2021/10/07 09:39:05;;;;;;;11.70;3.10;;;;;;;16.34;38.88;98112.55;116217;1183;59638;-67
2021/10/07 09:41:34;;;;;;;19.10;3.80;;;;;;;16.26;38.63;98123.88;116219;1174;59573;-68
2021/10/07 09:44:08;;;;;;;12.00;2.60;;;;;;;16.33;38.52;98127.92;116269;1182;70598;-69
2021/10/07 09:46:48;;;;;;;10.00;2.60;;;;;;;16.46;38.18;98132.73;116197;1184;70071;-70
2021/10/07 09:49:33;;;;;;;11.80;2.80;;;;;;;16.83;37.34;98127.42;116372;1182;69854;-65
2021/10/07 09:52:02;;;;;;;9.30;2.40;;;;;;;16.82;37.18;98129.39;116166;1184;59573;-70
2021/10/07 09:54:38;;;;;;;12.30;2.30;;;;;;;16.97;36.79;98125.50;116195;1183;59555;-68
2021/10/07 09:57:07;;;;;;;17.30;2.60;;;;;;;17.69;35.55;98117.55;116393;1183;72087;-65
2021/10/07 09:59:36;;;;;;;10.60;2.20;;;;;;;18.40;34.37;98125.23;116336;1182;67579;-68
2021/10/07 10:02:05;;;;;;;12.70;2.40;;;;;;;18.60;33.61;98135.77;116378;1182;69227;-71
2021/10/07 10:04:34;;;;;;;14.30;2.50;;;;;;;18.74;33.46;98135.27;116290;1184;59543;-67
2021/10/07 10:07:04;;;;;;;9.90;2.30;;;;;;;19.10;32.92;98135.67;116373;1182;59626;-67
2021/10/07 10:09:33;;;;;;;12.70;2.30;;;;;;;19.60;31.76;98130.88;116222;1183;70700;-68
2021/10/07 10:12:03;;;;;;;16.50;2.50;;;;;;;19.91;31.74;98132.12;116090;1183;68480;-67
2021/10/07 10:14:34;;;;;;;7.30;2.30;;;;;;;20.27;30.88;98123.98;116152;1184;68658;-71
2021/10/07 10:17:03;;;;;;;7.10;2.20;;;;;;;20.43;30.34;98129.96;116272;1182;59987;-67
2021/10/07 10:19:33;;;;;;;6.80;2.10;;;;;;;19.96;30.59;98119.13;116125;1174;59579;-68
2021/10/07 10:22:03;;;;;;;7.10;2.30;;;;;;;19.98;30.56;98116.05;116254;1182;71386;-69
2021/10/07 10:24:32;;;;;;;13.10;2.10;;;;;;;20.03;30.84;98115.91;116269;1182;67492;-65
2021/10/07 10:27:04;;;;;;;8.40;2.30;;;;;;;20.49;30.03;98108.73;116215;1184;68362;-67
2021/10/07 10:29:33;;;;;;;9.10;2.60;;;;;;;20.74;29.75;98111.70;116218;1184;59539;-68
2021/10/07 10:32:03;;;;;;;6.20;2.10;;;;;;;20.63;29.89;98114.70;116308;1183;59564;-66
2021/10/07 10:34:42;;;;;;;8.20;2.10;;;;;;;20.82;28.81;98121.34;116245;1182;70581;-71
2021/10/07 10:37:14;;;;;;;;;;;;;;;20.97;29.08;98122.73;116265;1182;67708;-72
2021/10/07 10:39:47;;;;;;;11.60;2.40;;;;;;;20.97;29.05;98119.10;116135;1184;68592;-71
2021/10/07 10:42:17;;;;;;;10.00;2.60;;;;;;;20.37;29.53;98131.05;116110;1184;59590;-65
2021/10/07 10:44:46;;;;;;;8.60;1.90;;;;;;;20.44;29.87;98134.84;116315;1183;59509;-69
2021/10/07 10:47:19;;;;;;;9.50;2.20;;;;;;;20.16;30.01;98131.70;116406;1182;71176;-67
2021/10/07 10:49:51;;;;;;;8.90;2.00;;;;;;;20.44;30.09;98126.70;116234;1184;68412;-66
2021/10/07 10:52:37;;;;;;;9.80;2.10;;;;;;;20.78;29.44;98117.31;116274;1182;69232;-67
2021/10/07 10:55:12;;;;;;;9.40;2.20;;;;;;;20.90;29.23;98121.98;116433;1183;59540;-66
2021/10/07 10:57:50;;;;;;;6.10;2.00;;;;;;;21.17;28.43;98105.46;116421;1182;59633;-70
2021/10/07 11:00:32;;;;;;;8.30;2.30;;;;;;;21.14;28.36;98113.05;116437;1182;70614;-68
2021/10/07 11:03:10;;;;;;;12.40;2.20;;;;;;;21.44;28.01;98109.16;116388;1182;67855;-73
2021/10/07 11:06:01;;;;;;;13.40;2.20;;;;;;;21.52;28.04;98113.91;116234;1182;69384;-67
2021/10/07 11:08:42;;;;;;;7.30;2.20;;;;;;;21.02;28.76;98115.46;116276;1182;59542;-72
2021/10/07 11:11:26;;;;;;;5.70;1.80;;;;;;;20.90;28.59;98106.94;116334;1182;59534;-71
2021/10/07 11:13:58;;;;;;;7.10;2.10;;;;;;;21.24;28.66;98106.83;116234;1182;71251;-73
2021/10/07 11:16:29;;;;;;;7.10;2.00;;;;;;;21.46;27.80;98107.60;116408;1182;68627;-71
2021/10/07 11:18:59;;;;;;;7.10;2.20;;;;;;;21.29;28.47;98105.16;116373;1182;68559;-70
2021/10/07 11:21:28;;;;;;;;;;;;;;;21.25;28.41;98109.80;116354;1182;59509;-70
2021/10/07 11:23:58;;;;;;;7.50;2.00;;;;;;;21.45;28.18;98114.14;116446;1181;59556;-72
2021/10/07 11:26:34;;;;;;;6.50;1.80;;;;;;;21.91;27.33;98104.30;116441;1181;71481;-68
2021/10/07 11:29:08;;;;;;;8.70;2.10;;;;;;;21.95;27.03;98098.60;116257;1182;67510;-66
2021/10/07 11:31:44;;;;;;;9.90;2.20;;;;;;;21.11;28.38;98108.66;116394;1182;69232;-70
2021/10/07 11:34:13;;;;;;;8.80;1.90;;;;;;;20.71;29.20;98105.33;116441;1182;59561;-68
2021/10/07 11:36:42;;;;;;;9.20;1.90;;;;;;;20.90;28.90;98104.85;116390;1182;59601;-69
2021/10/07 11:39:11;;;;;;;9.50;1.80;;;;;;;21.22;28.96;98102.70;116439;1182;70337;-71
2021/10/07 11:41:42;;;;;;;9.20;1.90;;;;;;;21.59;28.23;98105.78;116398;1181;68409;-69
2021/10/07 11:44:11;;;;;;;7.40;2.10;;;;;;;21.46;27.95;98104.02;116415;1182;69175;-70